Time;durP1;ratioP1;P1;durP2;ratioP2;P2;SDS_P1;SDS_P2;PMS_P1;PMS_P2;Temp;Humidity;BMP_temperature;BMP_pressure;BME280_temperature;BME280_humidity;BME280_pressure;Samples;Min_cycle;Max_cycle;Signal;HPM_P1;HPM_P2
2023/10/19 00:01:58;;;;;;;;;;;8.10;99.90;;;;;;5114166;28;20015;-41
2023/10/19 00:04:31;;;;;;;;;;;8.10;99.90;;;;;;5114266;28;20317;-41
2023/10/19 00:06:57;;;;;;;;;;;8.10;99.90;;;;;;5114380;28;19923;-41
2023/10/19 00:09:22;;;;;;;;;;;8.10;99.90;;;;;;5114283;28;19931;-41
2023/10/19 00:11:51;;;;;;;;;;;8.20;99.90;;;;;;5113982;28;19924;-41
2023/10/19 00:14:18;;;;;;;;;;;8.10;99.90;;;;;;5114081;28;20321;-41
2023/10/19 00:16:50;;;;;;;;;;;8.10;99.90;;;;;;5113904;28;19924;-41
2023/10/19 00:19:19;;;;;;;;;;;8.10;99.90;;;;;;5113895;28;19923;-41
2023/10/19 00:21:50;;;;;;;;;;;8.10;99.90;;;;;;5114111;28;19931;-41
2023/10/19 00:24:22;;;;;;;;;;;8.10;99.90;;;;;;5114124;28;19923;-42
2023/10/19 00:26:48;;;;;;;;;;;8.10;99.90;;;;;;5113968;28;19924;-40
2023/10/19 00:30:05;;;;;;;;;;;8.10;99.90;;;;;;5112544;28;20268;-41
2023/10/19 00:32:03;;;;;;;;;;;8.10;99.90;;;;;;5108027;28;19963;-41
2023/10/19 00:34:28;;;;;;;;;;;8.00;99.90;;;;;;5112981;28;20398;-41
2023/10/19 00:36:56;;;;;;;;;;;8.00;99.90;;;;;;5113848;28;20021;-40
2023/10/19 00:39:22;;;;;;;;;;;8.00;99.90;;;;;;5114024;28;19931;-41
2023/10/19 00:41:48;;;;;;;;;;;8.00;99.90;;;;;;5115321;28;19924;-41
2023/10/19 00:44:35;;;;;;;;;;;8.00;99.90;;;;;;5116591;28;19931;-41
2023/10/19 00:47:07;;;;;;;;;;;8.10;99.90;;;;;;5117879;28;19923;-40
2023/10/19 00:49:33;;;;;;;;;;;8.00;99.90;;;;;;5116468;28;19930;-41
2023/10/19 00:52:02;;;;;;;;;;;8.00;99.90;;;;;;5117215;28;19924;-41
2023/10/19 00:54:39;;;;;;;;;;;8.00;99.90;;;;;;5117223;28;19967;-41
2023/10/19 00:57:10;;;;;;;;;;;8.00;99.90;;;;;;5117899;28;19923;-41
2023/10/19 01:00:00;;;;;;;;;;;8.00;99.90;;;;;;5117195;28;19930;-40
2023/10/19 01:02:29;;;;;;;;;;;8.00;99.90;;;;;;5117212;28;19924;-42
2023/10/19 01:05:08;;;;;;;;;;;8.00;99.90;;;;;;5116854;28;19954;-41
2023/10/19 01:07:37;;;;;;;;;;;8.00;99.90;;;;;;5117578;28;19931;-40
2023/10/19 01:10:05;;;;;;;;;;;8.00;99.90;;;;;;5116988;28;19930;-41
2023/10/19 01:17:57;;;;;;;;;;;8.00;99.90;;;;;;5116571;28;19930;-41
2023/10/19 01:22:53;;;;;;;;;;;8.00;99.90;;;;;;5117085;28;19924;-41
2023/10/19 01:25:24;;;;;;;;;;;8.00;99.90;;;;;;5116754;28;19924;-40
2023/10/19 01:27:55;;;;;;;;;;;8.00;99.90;;;;;;5116573;28;20019;-40
2023/10/19 01:30:20;;;;;;;;;;;8.00;99.90;;;;;;5116647;28;19924;-41
2023/10/19 01:32:46;;;;;;;;;;;8.00;99.90;;;;;;5116609;28;19923;-41
2023/10/19 01:35:12;;;;;;;;;;;8.00;99.90;;;;;;5116737;28;19923;-40
2023/10/19 01:37:38;;;;;;;;;;;8.00;99.90;;;;;;5116344;28;19975;-41
2023/10/19 01:40:04;;;;;;;;;;;8.00;99.90;;;;;;5116282;28;19924;-41
2023/10/19 01:42:30;;;;;;;;;;;8.00;99.90;;;;;;5116798;28;19965;-41
2023/10/19 01:44:56;;;;;;;;;;;8.00;99.90;;;;;;5115368;28;20351;-41
2023/10/19 01:47:22;;;;;;;;;;;8.00;99.90;;;;;;5116480;28;19931;-40
2023/10/19 01:49:52;;;;;;;;;;;8.00;99.90;;;;;;5116068;28;19976;-40
2023/10/19 01:52:18;;;;;;;;;;;8.00;99.90;;;;;;5116030;28;19924;-41
2023/10/19 01:54:43;;;;;;;;;;;8.00;99.90;;;;;;5115234;28;19931;-41
2023/10/19 01:57:09;;;;;;;;;;;8.00;99.90;;;;;;5116394;28;19923;-41
2023/10/19 01:59:35;;;;;;;;;;;8.00;99.90;;;;;;5116082;28;19942;-41
2023/10/19 02:02:02;;;;;;;;;;;8.00;99.90;;;;;;5115035;28;20371;-41
2023/10/19 02:04:27;;;;;;;;;;;8.00;99.90;;;;;;5115956;28;19971;-40
2023/10/19 02:06:53;;;;;;;;;;;8.00;99.90;;;;;;5115836;28;20349;-41
2023/10/19 02:09:23;;;;;;;;;;;8.00;99.90;;;;;;5115678;28;19930;-41
2023/10/19 02:11:53;;;;;;;;;;;8.00;99.90;;;;;;5115741;28;19924;-41
2023/10/19 02:14:19;;;;;;;;;;;8.00;99.90;;;;;;5115711;28;19977;-41
2023/10/19 02:16:52;;;;;;;;;;;7.90;99.90;;;;;;5114760;28;19924;-40
2023/10/19 02:19:19;;;;;;;;;;;7.90;99.90;;;;;;5115704;28;20389;-41
2023/10/19 02:21:49;;;;;;;;;;;8.00;99.90;;;;;;5115434;28;19928;-40
2023/10/19 02:24:14;;;;;;;;;;;8.00;99.90;;;;;;5115630;28;20287;-41
2023/10/19 02:26:40;;;;;;;;;;;7.90;99.90;;;;;;5115590;28;19974;-40
2023/10/19 02:29:09;;;;;;;;;;;7.90;99.90;;;;;;5115446;28;19959;-41
2023/10/19 02:31:37;;;;;;;;;;;8.00;99.90;;;;;;5115273;28;19976;-41
2023/10/19 02:34:04;;;;;;;;;;;8.00;99.90;;;;;;5115372;28;19931;-41
2023/10/19 02:36:30;;;;;;;;;;;8.00;99.90;;;;;;5115266;28;19927;-41
2023/10/19 02:38:59;;;;;;;;;;;8.00;99.90;;;;;;5115450;28;19946;-41
2023/10/19 02:41:26;;;;;;;;;;;8.00;99.90;;;;;;5115253;28;19931;-41
2023/10/19 02:44:08;;;;;;;;;;;8.00;99.90;;;;;;5115220;28;19952;-41
2023/10/19 02:46:34;;;;;;;;;;;8.00;99.90;;;;;;5115262;28;20006;-41
2023/10/19 02:49:03;;;;;;;;;;;7.90;99.90;;;;;;5114916;28;20390;-41
2023/10/19 02:51:29;;;;;;;;;;;8.00;99.90;;;;;;5114995;28;20393;-41
2023/10/19 02:53:55;;;;;;;;;;;8.00;99.90;;;;;;5114840;28;20394;-41
2023/10/19 02:56:23;;;;;;;;;;;8.00;99.90;;;;;;5115090;28;19996;-41
2023/10/19 02:58:49;;;;;;;;;;;8.00;99.90;;;;;;5114918;28;19923;-41
2023/10/19 03:01:22;;;;;;;;;;;8.00;99.90;;;;;;5114948;28;20286;-41
2023/10/19 03:03:53;;;;;;;;;;;7.90;99.90;;;;;;5114537;28;20253;-41
2023/10/19 03:06:22;;;;;;;;;;;7.90;99.90;;;;;;5114928;28;19923;-40
2023/10/19 03:08:52;;;;;;;;;;;7.90;99.90;;;;;;5114797;28;19924;-41
2023/10/19 03:11:19;;;;;;;;;;;7.90;99.90;;;;;;5114503;28;19979;-41
2023/10/19 03:13:44;;;;;;;;;;;7.90;99.90;;;;;;5114733;28;19924;-41
2023/10/19 03:16:10;;;;;;;;;;;7.90;99.90;;;;;;5114682;28;19989;-41
2023/10/19 03:18:36;;;;;;;;;;;8.00;99.90;;;;;;5114184;28;19931;-40
2023/10/19 03:21:03;;;;;;;;;;;7.90;99.90;;;;;;5113777;28;20415;-41
2023/10/19 03:23:29;;;;;;;;;;;8.00;99.90;;;;;;5114561;28;20369;-40
2023/10/19 03:26:17;;;;;;;;;;;8.00;99.90;;;;;;5114436;28;20032;-40
2023/10/19 03:28:41;;;;;;;;;;;8.00;99.90;;;;;;5114295;28;19923;-41
2023/10/19 03:31:07;;;;;;;;;;;8.00;99.90;;;;;;5113396;28;20435;-41
2023/10/19 03:33:36;;;;;;;;;;;8.00;99.90;;;;;;5114485;28;19923;-41
2023/10/19 03:36:04;;;;;;;;;;;8.00;99.90;;;;;;5114507;28;19924;-41
2023/10/19 03:38:34;;;;;;;;;;;8.00;99.90;;;;;;5114377;28;19935;-41
2023/10/19 03:41:06;;;;;;;;;;;8.00;99.90;;;;;;5114356;28;19928;-41
2023/10/19 03:43:32;;;;;;;;;;;8.00;99.90;;;;;;5114721;28;19986;-41
2023/10/19 03:45:58;;;;;;;;;;;8.00;99.90;;;;;;5114422;28;19969;-41
2023/10/19 03:48:26;;;;;;;;;;;8.00;99.90;;;;;;5114305;28;19924;-40
2023/10/19 03:50:55;;;;;;;;;;;8.00;99.90;;;;;;5114490;28;19975;-41
2023/10/19 03:53:21;;;;;;;;;;;8.00;99.90;;;;;;5114194;28;19931;-40
2023/10/19 03:55:47;;;;;;;;;;;8.00;99.90;;;;;;5114104;28;19923;-41
2023/10/19 03:58:13;;;;;;;;;;;8.00;99.90;;;;;;5114729;28;19923;-41
2023/10/19 04:00:39;;;;;;;;;;;8.00;99.90;;;;;;5114214;28;20275;-40
2023/10/19 04:03:04;;;;;;;;;;;8.00;99.90;;;;;;5114198;28;19930;-40
2023/10/19 04:05:31;;;;;;;;;;;8.00;99.90;;;;;;5114313;28;19955;-40
2023/10/19 04:08:00;;;;;;;;;;;8.00;99.90;;;;;;5113201;28;19939;-41
2023/10/19 04:13:00;;;;;;;;;;;8.00;99.90;;;;;;5114224;28;19924;-41
2023/10/19 04:15:26;;;;;;;;;;;8.00;99.90;;;;;;5114167;28;20390;-41
2023/10/19 04:17:54;;;;;;;;;;;8.00;99.90;;;;;;5117429;28;19979;-41
2023/10/19 04:22:46;;;;;;;;;;;8.00;99.90;;;;;;5117763;28;19945;-41
2023/10/19 04:25:12;;;;;;;;;;;8.00;99.90;;;;;;5117800;28;20305;-40
2023/10/19 04:27:38;;;;;;;;;;;8.00;99.90;;;;;;5117900;28;20003;-41
2023/10/19 04:30:04;;;;;;;;;;;8.00;99.90;;;;;;5117646;28;20387;-40
2023/10/19 04:32:31;;;;;;;;;;;8.10;99.90;;;;;;5117673;28;19928;-41
2023/10/19 04:34:58;;;;;;;;;;;8.00;99.90;;;;;;5117580;27;19924;-40
2023/10/19 04:37:24;;;;;;;;;;;8.00;99.90;;;;;;5117430;28;20387;-41
2023/10/19 04:39:50;;;;;;;;;;;8.00;99.90;;;;;;5117605;27;19976;-41
2023/10/19 04:42:15;;;;;;;;;;;8.00;99.90;;;;;;5117562;27;19966;-41
2023/10/19 04:44:41;;;;;;;;;;;8.00;99.90;;;;;;5117991;28;20389;-40
2023/10/19 04:47:06;;;;;;;;;;;8.00;99.90;;;;;;5116634;28;20404;-40
2023/10/19 04:49:32;;;;;;;;;;;8.00;99.90;;;;;;5117522;28;19924;-41
2023/10/19 04:51:58;;;;;;;;;;;8.00;99.90;;;;;;5117016;28;19928;-41
2023/10/19 04:54:23;;;;;;;;;;;8.00;99.90;;;;;;5117067;28;20006;-40
2023/10/19 04:56:50;;;;;;;;;;;8.00;99.90;;;;;;5117160;28;19928;-41
2023/10/19 04:59:17;;;;;;;;;;;8.10;99.90;;;;;;5117188;28;19967;-41
2023/10/19 05:01:43;;;;;;;;;;;8.10;99.90;;;;;;5117062;28;19931;-40
2023/10/19 05:04:09;;;;;;;;;;;8.10;99.90;;;;;;5116987;28;19927;-40
2023/10/19 05:06:34;;;;;;;;;;;8.10;99.90;;;;;;5116983;28;19924;-41
2023/10/19 05:09:02;;;;;;;;;;;8.10;99.90;;;;;;5116876;28;20379;-41
2023/10/19 05:11:28;;;;;;;;;;;8.10;99.90;;;;;;5116893;28;19928;-40
2023/10/19 05:13:54;;;;;;;;;;;8.10;99.90;;;;;;5132874;27;19923;-40
2023/10/19 05:16:20;;;;;;;;;;;8.10;99.90;;;;;;5116822;28;20286;-40
2023/10/19 05:18:46;;;;;;;;;;;8.10;99.90;;;;;;5116579;28;20391;-41
2023/10/19 05:21:12;;;;;;;;;;;8.10;99.90;;;;;;5116566;28;20012;-41
2023/10/19 05:23:38;;;;;;;;;;;8.20;99.90;;;;;;5116543;28;20383;-41
2023/10/19 05:26:06;;;;;;;;;;;8.20;99.90;;;;;;5117052;28;19931;-40
2023/10/19 05:28:32;;;;;;;;;;;8.20;99.90;;;;;;5115417;28;19923;-41
2023/10/19 05:30:59;;;;;;;;;;;8.20;99.90;;;;;;5116798;28;19931;-40
2023/10/19 05:33:25;;;;;;;;;;;8.20;99.90;;;;;;5116666;28;19927;-40
2023/10/19 05:35:51;;;;;;;;;;;8.20;99.90;;;;;;5116294;28;19924;-41
2023/10/19 05:38:19;;;;;;;;;;;8.20;99.90;;;;;;5116582;28;19928;-41
2023/10/19 05:40:45;;;;;;;;;;;8.20;99.90;;;;;;5115479;28;19931;-41
2023/10/19 05:43:11;;;;;;;;;;;8.20;99.90;;;;;;5116385;27;19934;-41
2023/10/19 05:45:37;;;;;;;;;;;8.10;99.90;;;;;;5116522;28;20294;-40
2023/10/19 05:48:09;;;;;;;;;;;8.20;99.90;;;;;;5116143;28;19959;-40
2023/10/19 05:50:35;;;;;;;;;;;8.20;99.90;;;;;;5115904;28;19930;-41
2023/10/19 05:53:01;;;;;;;;;;;8.20;99.90;;;;;;5116228;28;19923;-41
2023/10/19 05:55:26;;;;;;;;;;;8.20;99.90;;;;;;5116162;28;19924;-40
2023/10/19 05:57:52;;;;;;;;;;;8.20;99.90;;;;;;5115925;28;19924;-40
2023/10/19 06:00:21;;;;;;;;;;;8.20;99.90;;;;;;5116049;28;19924;-40
2023/10/19 06:02:48;;;;;;;;;;;8.20;99.90;;;;;;5115960;28;19924;-40
2023/10/19 06:05:15;;;;;;;;;;;8.10;99.90;;;;;;5114997;28;19930;-40
2023/10/19 06:07:45;;;;;;;;;;;8.10;99.90;;;;;;5116096;28;19923;-40
2023/10/19 06:10:15;;;;;;;;;;;8.10;99.90;;;;;;5115829;28;20302;-41
2023/10/19 06:12:41;;;;;;;;;;;8.10;99.90;;;;;;5115747;27;20409;-40
2023/10/19 06:15:07;;;;;;;;;;;8.20;99.90;;;;;;5115723;27;19930;-40
2023/10/19 06:17:33;;;;;;;;;;;8.10;99.90;;;;;;5114764;28;20014;-40
2023/10/19 06:19:59;;;;;;;;;;;8.10;99.90;;;;;;5115563;28;20351;-41
2023/10/19 06:22:24;;;;;;;;;;;8.20;99.90;;;;;;5115546;28;19947;-40
2023/10/19 06:24:50;;;;;;;;;;;8.10;99.90;;;;;;5115419;28;19985;-40
2023/10/19 06:27:15;;;;;;;;;;;8.10;99.90;;;;;;5115414;28;19971;-40
2023/10/19 06:29:41;;;;;;;;;;;8.10;99.90;;;;;;5115252;28;20006;-41
2023/10/19 06:32:06;;;;;;;;;;;8.10;99.90;;;;;;5115503;28;19924;-41
2023/10/19 06:34:32;;;;;;;;;;;8.10;99.90;;;;;;5115431;28;19924;-40
2023/10/19 06:36:59;;;;;;;;;;;8.20;99.90;;;;;;5115266;28;19924;-40
2023/10/19 06:39:24;;;;;;;;;;;8.20;99.90;;;;;;5115013;28;19924;-40
2023/10/19 06:41:50;;;;;;;;;;;8.20;99.90;;;;;;5115280;28;20371;-40
2023/10/19 06:44:16;;;;;;;;;;;8.20;99.90;;;;;;5115092;28;19924;-40
2023/10/19 06:46:43;;;;;;;;;;;8.20;99.90;;;;;;5115287;28;20016;-41
2023/10/19 06:49:09;;;;;;;;;;;8.20;99.90;;;;;;5115137;28;19931;-40
2023/10/19 06:51:36;;;;;;;;;;;8.20;99.90;;;;;;5115066;28;19924;-41
2023/10/19 06:54:02;;;;;;;;;;;8.20;99.90;;;;;;5115090;28;20020;-40
2023/10/19 06:56:27;;;;;;;;;;;8.20;99.90;;;;;;5115024;28;19969;-41
2023/10/19 06:58:53;;;;;;;;;;;8.20;99.90;;;;;;5115021;28;19923;-41
2023/10/19 07:01:22;;;;;;;;;;;8.20;99.90;;;;;;5114946;28;19978;-41
2023/10/19 07:03:48;;;;;;;;;;;8.20;99.90;;;;;;5114216;28;19924;-40
2023/10/19 07:06:14;;;;;;;;;;;8.20;99.90;;;;;;5115051;28;20290;-40
2023/10/19 07:08:40;;;;;;;;;;;8.20;99.90;;;;;;5114746;28;19935;-40
2023/10/19 07:11:07;;;;;;;;;;;8.20;99.90;;;;;;5114854;28;19930;-40
2023/10/19 07:13:33;;;;;;;;;;;8.20;99.90;;;;;;5114760;28;19974;-40
2023/10/19 07:15:59;;;;;;;;;;;8.20;99.90;;;;;;5114526;28;19924;-41
2023/10/19 07:18:24;;;;;;;;;;;8.20;99.90;;;;;;5114680;28;19924;-41
2023/10/19 07:20:53;;;;;;;;;;;8.20;99.90;;;;;;5115026;28;19924;-40
2023/10/19 07:23:19;;;;;;;;;;;8.20;99.90;;;;;;5114977;28;19977;-40
2023/10/19 07:25:52;;;;;;;;;;;8.20;99.90;;;;;;5114634;28;20286;-40
2023/10/19 07:28:19;;;;;;;;;;;8.20;99.90;;;;;;5114680;28;19924;-41
2023/10/19 07:30:46;;;;;;;;;;;8.20;99.90;;;;;;5114376;28;20008;-41
2023/10/19 07:33:18;;;;;;;;;;;8.20;99.90;;;;;;5113672;28;19923;-40
2023/10/19 07:35:46;;;;;;;;;;;8.20;99.90;;;;;;5114700;28;19931;-40
2023/10/19 07:38:13;;;;;;;;;;;8.20;99.90;;;;;;5114442;28;20053;-40
2023/10/19 07:40:38;;;;;;;;;;;8.20;99.90;;;;;;5114325;28;20056;-40
2023/10/19 07:43:04;;;;;;;;;;;8.20;99.90;;;;;;5114250;28;19969;-40
2023/10/19 07:45:31;;;;;;;;;;;8.20;99.90;;;;;;5113557;28;19938;-41
2023/10/19 07:47:57;;;;;;;;;;;8.20;99.90;;;;;;5114223;28;20378;-40
2023/10/19 07:50:23;;;;;;;;;;;8.20;99.90;;;;;;5113355;28;19924;-40
2023/10/19 07:52:53;;;;;;;;;;;8.20;99.90;;;;;;5117611;28;19969;-40
2023/10/19 07:55:20;;;;;;;;;;;8.20;99.90;;;;;;5118398;28;19924;-40
2023/10/19 07:57:50;;;;;;;;;;;8.20;99.90;;;;;;5118253;28;19923;-40
2023/10/19 08:00:17;;;;;;;;;;;8.20;99.90;;;;;;5118500;28;19924;-40
2023/10/19 08:02:45;;;;;;;;;;;8.20;99.90;;;;;;5117466;28;19923;-40
2023/10/19 08:05:14;;;;;;;;;;;8.20;99.90;;;;;;5118239;28;19923;-40
2023/10/19 08:07:42;;;;;;;;;;;8.20;99.90;;;;;;5118141;28;19931;-40
2023/10/19 08:10:10;;;;;;;;;;;8.20;99.90;;;;;;5117911;28;19923;-41
2023/10/19 08:12:36;;;;;;;;;;;8.20;99.90;;;;;;5116985;28;19924;-40
2023/10/19 08:15:01;;;;;;;;;;;8.20;99.90;;;;;;5118158;28;19924;-41
2023/10/19 08:17:27;;;;;;;;;;;8.20;99.90;;;;;;5118031;28;19923;-40
2023/10/19 08:19:53;;;;;;;;;;;8.20;99.90;;;;;;5118060;28;20351;-41
2023/10/19 08:22:19;;;;;;;;;;;8.20;99.90;;;;;;5118023;28;19923;-41
2023/10/19 08:24:45;;;;;;;;;;;8.20;99.90;;;;;;5118019;27;19928;-40
2023/10/19 08:27:11;;;;;;;;;;;8.20;99.90;;;;;;5117919;28;19932;-41
2023/10/19 08:29:37;;;;;;;;;;;8.20;99.90;;;;;;5116989;28;19980;-40
2023/10/19 08:32:03;;;;;;;;;;;8.30;99.90;;;;;;5116506;28;19930;-40
2023/10/19 08:34:32;;;;;;;;;;;8.20;99.90;;;;;;5117918;28;19924;-40
2023/10/19 08:36:57;;;;;;;;;;;8.20;99.90;;;;;;5116472;28;19930;-40
2023/10/19 08:39:24;;;;;;;;;;;8.20;99.90;;;;;;5117488;28;19924;-40
2023/10/19 08:41:53;;;;;;;;;;;8.20;99.90;;;;;;5117684;28;20361;-40
2023/10/19 08:44:19;;;;;;;;;;;8.20;99.90;;;;;;5117624;28;19924;-40
2023/10/19 08:46:47;;;;;;;;;;;8.20;99.90;;;;;;5117579;28;19927;-40
2023/10/19 08:49:13;;;;;;;;;;;8.20;99.90;;;;;;5117612;28;19924;-40
2023/10/19 08:51:39;;;;;;;;;;;8.20;99.90;;;;;;5117432;28;19931;-40
2023/10/19 08:54:05;;;;;;;;;;;8.30;99.90;;;;;;5117261;28;19924;-41
2023/10/19 08:56:33;;;;;;;;;;;8.20;99.90;;;;;;5117444;28;19930;-41
2023/10/19 08:59:00;;;;;;;;;;;8.30;99.90;;;;;;5117403;28;19927;-40
2023/10/19 09:01:27;;;;;;;;;;;8.20;99.90;;;;;;5117542;28;19924;-41
2023/10/19 09:03:53;;;;;;;;;;;8.30;99.90;;;;;;5116845;28;19931;-40
2023/10/19 09:06:20;;;;;;;;;;;8.30;99.90;;;;;;5117145;28;19924;-41
2023/10/19 09:08:48;;;;;;;;;;;8.30;99.90;;;;;;5117041;28;20291;-41
2023/10/19 09:11:13;;;;;;;;;;;8.30;99.90;;;;;;5116619;28;20372;-41
2023/10/19 09:13:43;;;;;;;;;;;8.30;99.90;;;;;;5116740;28;19977;-41
2023/10/19 09:16:09;;;;;;;;;;;8.30;99.90;;;;;;5116845;28;19974;-41
2023/10/19 09:18:35;;;;;;;;;;;8.30;99.90;;;;;;5116635;28;19924;-41
2023/10/19 09:21:07;;;;;;;;;;;8.30;99.90;;;;;;5116799;28;20332;-42
2023/10/19 09:23:33;;;;;;;;;;;8.40;99.90;;;;;;5116852;28;19923;-41
2023/10/19 09:26:07;;;;;;;;;;;8.40;99.90;;;;;;5116766;28;20383;-41
2023/10/19 09:28:36;;;;;;;;;;;8.40;99.90;;;;;;5117109;27;19931;-41
2023/10/19 09:31:03;;;;;;;;;;;8.40;99.90;;;;;;5116778;28;19971;-41
2023/10/19 09:33:30;;;;;;;;;;;8.40;99.90;;;;;;5116599;28;19924;-41
2023/10/19 09:36:00;;;;;;;;;;;8.40;99.90;;;;;;5116452;28;20025;-41
2023/10/19 09:38:26;;;;;;;;;;;8.40;99.90;;;;;;5116735;28;19924;-41
2023/10/19 09:40:54;;;;;;;;;;;8.40;99.90;;;;;;5116507;28;20349;-41
2023/10/19 09:43:39;;;;;;;;;;;8.40;99.90;;;;;;5116382;28;20379;-40
2023/10/19 09:46:08;;;;;;;;;;;8.40;99.90;;;;;;5116131;28;19927;-41
2023/10/19 09:48:41;;;;;;;;;;;8.40;99.90;;;;;;5116336;28;19930;-41
2023/10/19 09:51:08;;;;;;;;;;;8.40;99.90;;;;;;5116145;28;20267;-41
2023/10/19 09:53:34;;;;;;;;;;;8.40;99.90;;;;;;5116253;28;19931;-41
2023/10/19 09:56:01;;;;;;;;;;;8.50;99.90;;;;;;5116135;28;19927;-41
2023/10/19 09:58:40;;;;;;;;;;;8.50;99.90;;;;;;5116195;28;19947;-41
2023/10/19 10:01:12;;;;;;;;;;;8.50;99.90;;;;;;5116079;27;19924;-41
2023/10/19 10:03:53;;;;;;;;;;;8.50;99.90;;;;;;5116193;27;19924;-41
2023/10/19 10:06:51;;;;;;;;;;;8.50;99.90;;;;;;5115937;28;20420;-42
2023/10/19 10:09:23;;;;;;;;;;;8.50;99.90;;;;;;5115597;28;19968;-42
2023/10/19 10:11:49;;;;;;;;;;;8.50;99.90;;;;;;5115832;28;19924;-41
2023/10/19 10:14:21;;;;;;;;;;;8.50;99.90;;;;;;5115141;28;19984;-41
2023/10/19 10:16:48;;;;;;;;;;;8.50;99.90;;;;;;5115953;28;19984;-41
2023/10/19 10:19:19;;;;;;;;;;;8.50;99.90;;;;;;5115320;28;19924;-41
2023/10/19 10:22:04;;;;;;;;;;;8.60;99.90;;;;;;5115701;28;20022;-41
2023/10/19 10:24:31;;;;;;;;;;;8.60;99.90;;;;;;5115627;28;19928;-41
2023/10/19 10:26:57;;;;;;;;;;;8.60;99.90;;;;;;5115714;28;19946;-41
2023/10/19 10:29:27;;;;;;;;;;;8.60;99.90;;;;;;5115899;28;19954;-41
2023/10/19 10:31:53;;;;;;;;;;;8.60;99.90;;;;;;5115321;28;20026;-41
2023/10/19 10:34:34;;;;;;;;;;;8.60;99.90;;;;;;5115304;28;19963;-42
2023/10/19 10:37:02;;;;;;;;;;;8.60;99.90;;;;;;5115374;28;19958;-41
2023/10/19 10:39:28;;;;;;;;;;;8.60;99.90;;;;;;5115749;28;19976;-41
2023/10/19 10:41:57;;;;;;;;;;;8.70;99.90;;;;;;5115386;28;20281;-41
2023/10/19 10:44:35;;;;;;;;;;;8.70;99.90;;;;;;5115274;28;19967;-41
2023/10/19 10:47:00;;;;;;;;;;;8.70;99.90;;;;;;5115432;28;19977;-41
2023/10/19 10:49:26;;;;;;;;;;;8.70;99.90;;;;;;5114034;28;20328;-41
2023/10/19 10:51:53;;;;;;;;;;;8.70;99.90;;;;;;5115008;28;19924;-41
2023/10/19 10:54:21;;;;;;;;;;;8.70;99.90;;;;;;5115350;28;20014;-42
2023/10/19 10:56:46;;;;;;;;;;;8.70;99.90;;;;;;5115197;28;19924;-42
2023/10/19 10:59:12;;;;;;;;;;;8.70;99.90;;;;;;5114836;28;19924;-42
2023/10/19 11:01:38;;;;;;;;;;;8.70;99.90;;;;;;5115075;28;19923;-41
2023/10/19 11:04:07;;;;;;;;;;;8.70;99.90;;;;;;5114911;28;19930;-41
2023/10/19 11:06:33;;;;;;;;;;;8.70;99.90;;;;;;5114916;28;20068;-42
2023/10/19 11:09:08;;;;;;;;;;;8.70;99.90;;;;;;5115139;28;19985;-42
2023/10/19 11:11:38;;;;;;;;;;;8.70;99.90;;;;;;5114719;28;20390;-44
2023/10/19 11:14:08;;;;;;;;;;;8.70;99.90;;;;;;5114509;28;20370;-42
2023/10/19 11:16:34;;;;;;;;;;;8.70;99.90;;;;;;5114263;28;19963;-43
2023/10/19 11:18:59;;;;;;;;;;;8.80;99.90;;;;;;5114637;28;20040;-41
2023/10/19 11:21:25;;;;;;;;;;;8.70;99.90;;;;;;5114623;28;19931;-41
2023/10/19 11:23:52;;;;;;;;;;;8.70;99.90;;;;;;5114627;28;19998;-42
2023/10/19 11:26:21;;;;;;;;;;;8.70;99.90;;;;;;5114321;28;19924;-42
2023/10/19 11:28:56;;;;;;;;;;;8.70;99.90;;;;;;5114635;28;19977;-42
2023/10/19 11:31:22;;;;;;;;;;;8.70;99.90;;;;;;5113774;28;20348;-41
2023/10/19 11:33:48;;;;;;;;;;;8.70;99.90;;;;;;5114526;28;19923;-42
2023/10/19 11:36:14;;;;;;;;;;;8.70;99.90;;;;;;5114640;28;19924;-41
2023/10/19 11:38:45;;;;;;;;;;;8.80;99.90;;;;;;5114454;28;19973;-41
2023/10/19 11:41:12;;;;;;;;;;;8.70;99.90;;;;;;5114439;28;19928;-42
2023/10/19 11:43:38;;;;;;;;;;;8.70;99.90;;;;;;5114310;28;20390;-41
2023/10/19 11:46:06;;;;;;;;;;;8.70;99.90;;;;;;5114589;28;19975;-41
2023/10/19 11:48:32;;;;;;;;;;;8.70;99.90;;;;;;5113203;28;19972;-41
2023/10/19 11:50:58;;;;;;;;;;;8.80;99.90;;;;;;5114209;28;19924;-41
2023/10/19 11:53:24;;;;;;;;;;;8.70;99.90;;;;;;5114163;28;20332;-42
2023/10/19 11:55:49;;;;;;;;;;;8.70;99.90;;;;;;5114110;28;19932;-41
2023/10/19 11:58:15;;;;;;;;;;;8.70;99.90;;;;;;5113993;28;19931;-41
2023/10/19 12:00:43;;;;;;;;;;;8.70;99.90;;;;;;5113974;28;19978;-41
2023/10/19 12:03:10;;;;;;;;;;;8.70;99.90;;;;;;5114062;28;20457;-42
2023/10/19 12:05:37;;;;;;;;;;;8.70;99.90;;;;;;5113883;28;19924;-41
2023/10/19 12:08:02;;;;;;;;;;;8.70;99.90;;;;;;5113883;28;19924;-42
2023/10/19 12:10:38;;;;;;;;;;;8.70;99.90;;;;;;5113829;28;20260;-42
2023/10/19 12:13:05;;;;;;;;;;;8.70;99.90;;;;;;5113861;28;20389;-42
2023/10/19 12:15:31;;;;;;;;;;;8.70;99.90;;;;;;5114027;28;20409;-42
2023/10/19 12:17:57;;;;;;;;;;;8.70;99.90;;;;;;5114077;28;19924;-42
2023/10/19 12:20:22;;;;;;;;;;;8.70;99.90;;;;;;5114393;28;19924;-41
2023/10/19 12:22:52;;;;;;;;;;;8.70;99.90;;;;;;5113876;28;19923;-41
2023/10/19 12:25:17;;;;;;;;;;;8.70;99.90;;;;;;5114538;28;19924;-41
2023/10/19 12:27:43;;;;;;;;;;;8.60;99.90;;;;;;5114036;28;20325;-41
2023/10/19 12:30:21;;;;;;;;;;;8.70;99.90;;;;;;5113958;28;19924;-42
2023/10/19 12:32:49;;;;;;;;;;;8.70;99.90;;;;;;5114122;28;19976;-41
2023/10/19 12:35:15;;;;;;;;;;;8.70;99.90;;;;;;5113793;28;19924;-42
2023/10/19 12:37:46;;;;;;;;;;;8.70;99.90;;;;;;5115343;28;20022;-42
2023/10/19 12:40:26;;;;;;;;;;;8.70;99.90;;;;;;5117924;28;20370;-42
2023/10/19 12:42:54;;;;;;;;;;;8.70;99.90;;;;;;5117749;28;19945;-42
2023/10/19 12:45:21;;;;;;;;;;;8.70;99.90;;;;;;5117478;28;19927;-41
2023/10/19 12:47:46;;;;;;;;;;;8.70;99.90;;;;;;5117511;28;19923;-42
2023/10/19 12:50:12;;;;;;;;;;;8.70;99.90;;;;;;5117555;28;20457;-41
2023/10/19 12:52:40;;;;;;;;;;;8.70;99.90;;;;;;5117469;28;20022;-42
2023/10/19 12:55:06;;;;;;;;;;;8.70;99.90;;;;;;5117354;28;19931;-41
2023/10/19 12:57:32;;;;;;;;;;;8.70;99.90;;;;;;5117263;28;20275;-42
2023/10/19 13:00:06;;;;;;;;;;;8.70;99.90;;;;;;5116334;28;19931;-41
2023/10/19 13:02:32;;;;;;;;;;;8.70;99.90;;;;;;5117214;28;19931;-41
2023/10/19 13:04:59;;;;;;;;;;;8.70;99.90;;;;;;5117265;28;19924;-41
2023/10/19 13:07:26;;;;;;;;;;;8.70;99.90;;;;;;5117179;28;19978;-41
2023/10/19 13:09:51;;;;;;;;;;;8.70;99.90;;;;;;5117050;27;20394;-41
2023/10/19 13:12:23;;;;;;;;;;;8.70;99.90;;;;;;5117013;28;20006;-42
2023/10/19 13:14:49;;;;;;;;;;;8.60;99.90;;;;;;5116816;28;19931;-42
2023/10/19 13:17:14;;;;;;;;;;;8.70;99.90;;;;;;5116961;28;19924;-42
2023/10/19 13:19:40;;;;;;;;;;;8.70;99.90;;;;;;5116876;28;19982;-42
2023/10/19 13:22:07;;;;;;;;;;;8.70;99.90;;;;;;5116884;28;20329;-41
2023/10/19 13:24:40;;;;;;;;;;;8.70;99.90;;;;;;5116929;28;19946;-41
2023/10/19 13:27:06;;;;;;;;;;;8.70;99.90;;;;;;5116652;28;19924;-42
2023/10/19 13:29:37;;;;;;;;;;;8.70;99.90;;;;;;5116456;28;20018;-42
2023/10/19 13:32:03;;;;;;;;;;;8.70;99.90;;;;;;5116681;28;19985;-41
2023/10/19 13:34:28;;;;;;;;;;;8.70;99.90;;;;;;5116597;28;19959;-41
2023/10/19 13:36:55;;;;;;;;;;;8.70;99.90;;;;;;5116510;28;20394;-42
2023/10/19 13:39:24;;;;;;;;;;;8.70;99.90;;;;;;5116550;28;20336;-41
2023/10/19 13:41:52;;;;;;;;;;;8.70;99.90;;;;;;5115326;28;19927;-42
2023/10/19 13:44:20;;;;;;;;;;;8.70;99.90;;;;;;5116625;28;19924;-41
2023/10/19 13:46:51;;;;;;;;;;;8.80;99.90;;;;;;5116455;28;19936;-41
2023/10/19 13:49:18;;;;;;;;;;;8.70;99.90;;;;;;5115314;28;19982;-42
2023/10/19 13:51:44;;;;;;;;;;;8.70;99.90;;;;;;5116332;28;19924;-42
2023/10/19 13:54:10;;;;;;;;;;;8.70;99.90;;;;;;5116231;28;20295;-41
2023/10/19 13:56:36;;;;;;;;;;;8.70;99.90;;;;;;5115978;28;20286;-42
2023/10/19 13:59:02;;;;;;;;;;;8.70;99.90;;;;;;5116198;28;19931;-42
2023/10/19 14:01:28;;;;;;;;;;;8.80;99.90;;;;;;5116005;28;20344;-41
2023/10/19 14:03:57;;;;;;;;;;;8.80;99.90;;;;;;5116070;28;20018;-42
2023/10/19 14:06:24;;;;;;;;;;;8.80;99.90;;;;;;5115884;28;20018;-41
2023/10/19 14:08:51;;;;;;;;;;;8.80;99.90;;;;;;5115872;28;19935;-42
2023/10/19 14:11:17;;;;;;;;;;;8.80;99.90;;;;;;5115584;28;19923;-42
2023/10/19 14:13:42;;;;;;;;;;;8.80;99.90;;;;;;5115847;28;19923;-41
2023/10/19 14:16:09;;;;;;;;;;;8.80;99.90;;;;;;5114737;28;19979;-42
2023/10/19 14:18:35;;;;;;;;;;;8.80;99.90;;;;;;5115502;28;19930;-42
2023/10/19 14:21:10;;;;;;;;;;;8.80;99.90;;;;;;5115661;28;19923;-41
2023/10/19 14:23:38;;;;;;;;;;;8.80;99.90;;;;;;5115656;28;19969;-42
2023/10/19 14:26:04;;;;;;;;;;;8.80;99.90;;;;;;5115392;28;20022;-41
2023/10/19 14:28:29;;;;;;;;;;;8.80;99.90;;;;;;5115490;28;20353;-43
2023/10/19 14:30:56;;;;;;;;;;;8.80;99.90;;;;;;5115362;28;19946;-41
2023/10/19 14:33:21;;;;;;;;;;;8.80;99.90;;;;;;5115775;28;19927;-42
2023/10/19 14:35:47;;;;;;;;;;;8.80;99.90;;;;;;5114320;28;20014;-41
2023/10/19 14:38:14;;;;;;;;;;;8.80;99.90;;;;;;5115270;28;19923;-42
2023/10/19 14:40:44;;;;;;;;;;;8.90;99.90;;;;;;5115444;27;19924;-41
2023/10/19 14:43:10;;;;;;;;;;;8.80;99.90;;;;;;5115320;28;20275;-41
2023/10/19 14:45:36;;;;;;;;;;;8.80;99.90;;;;;;5115410;28;19969;-41
2023/10/19 14:48:08;;;;;;;;;;;8.80;99.90;;;;;;5115375;28;20298;-41